Megah Delapan — VRGA4 — position and weather

sailwx.info

Track history (hours):
 
Tides and Currents Weather Stations Pressure Air Temp Water Temp Dewpoint Dewpoint Depression Visibility Wind Speed Wind Dir Waves Ship Positions

Megah Delapan

Last reported at 2017-Jan-21 06:20 UTC. Time now 2017-Jan-22 01:48 UTC.
Position N 35°03' E 139°38'.

Length 120 m; draft 7.1 m.

Type: Cargo ship. MMSI: 477639100.

Date/timePositionNaut miles runAvg speedWind from/ knotsBaromVisibWave heightAir tempDewpointWater temp
2017-Jan-21 06:20N 35°03' E 139°38'1113.5
2017-Jan-21 05:33N 35°11' E 139°46'1212.4
2017-Jan-21 04:33N 35°23' E 139°42'4 3.4
2017-Jan-21 03:31N 35°27' E 139°40'0 0.0
2017-Jan-21 02:31N 35°27' E 139°40'0 0.0
2017-Jan-21 01:31N 35°27' E 139°40'0 0.0
2017-Jan-21 00:31N 35°27' E 139°40'0 0.0
2017-Jan-20 23:31N 35°27' E 139°40'0 0.0
2017-Jan-20 22:31N 35°27' E 139°40'2 2.0
2017-Jan-20 21:33N 35°26' E 139°43'5 4.7
2017-Jan-20 20:33N 35°21' E 139°43'7 6.5
2017-Jan-20 19:33N 35°15' E 139°47'8 8.0
2017-Jan-20 18:33N 35°07' E 139°47'  
2017-Jan-18 10:17N 34°12' E 134°58'1114.3
2017-Jan-18 09:32N 34°22' E 135°02'1312.9
2017-Jan-18 08:33N 34°29' E 135°14'7 7.1
2017-Jan-18 07:31N 34°31' E 135°23'0 0.0
2017-Jan-18 06:31N 34°31' E 135°23'0 0.0
2017-Jan-18 05:31N 34°31' E 135°23'0 0.0
2017-Jan-18 04:31N 34°31' E 135°23'0 0.0
2017-Jan-18 03:31N 34°31' E 135°23'0 0.0
2017-Jan-18 02:31N 34°31' E 135°23'0 0.0
2017-Jan-18 01:31N 34°31' E 135°23'0 0.0
2017-Jan-18 00:31N 34°31' E 135°23'0 0.0
2017-Jan-17 23:31N 34°31' E 135°23'0 0.0
2017-Jan-17 22:31N 34°31' E 135°23'0 0.0
2017-Jan-17 21:31N 34°31' E 135°23'0 0.0
2017-Jan-17 20:31N 34°31' E 135°23'0 0.0
2017-Jan-17 19:31N 34°31' E 135°23'0 0.0
2017-Jan-17 18:25N 34°31' E 135°23'0 0.0
2017-Jan-17 17:31N 34°31' E 135°23'0 0.0
2017-Jan-17 16:25N 34°31' E 135°23'0 0.0
2017-Jan-17 15:25N 34°31' E 135°23'0 0.0
2017-Jan-17 14:31N 34°31' E 135°23'0 0.0
2017-Jan-17 13:31N 34°31' E 135°23'0 0.0
2017-Jan-17 12:31N 34°31' E 135°23'0 0.0
2017-Jan-17 11:25N 34°31' E 135°23'0 0.0
2017-Jan-17 10:31N 34°31' E 135°23'0 0.0
2017-Jan-17 09:31N 34°31' E 135°23'0 0.0
2017-Jan-17 08:25N 34°31' E 135°23'0 0.0
2017-Jan-17 07:31N 34°31' E 135°23'0 0.0
2017-Jan-17 06:25N 34°31' E 135°23'0 0.0
2017-Jan-17 05:25N 34°31' E 135°23'0 0.0
2017-Jan-17 04:31N 34°31' E 135°23'0 0.0
2017-Jan-17 03:25N 34°31' E 135°23'0 0.0
2017-Jan-17 02:19N 34°31' E 135°23'0 0.0
2017-Jan-17 01:31N 34°31' E 135°23'0 0.1
2017-Jan-17 00:33N 34°31' E 135°23'3 2.6
2017-Jan-16 23:33N 34°33' E 135°22'1 0.6
2017-Jan-16 22:13N 34°34' E 135°22'0 0.0
2017-Jan-16 21:31N 34°34' E 135°22'0 0.0
2017-Jan-16 20:31N 34°34' E 135°22'0 0.0
2017-Jan-16 19:31N 34°34' E 135°22'0 0.0
2017-Jan-16 18:31N 34°34' E 135°22'0 0.0
2017-Jan-16 17:31N 34°34' E 135°22'0 0.0
2017-Jan-16 16:31N 34°34' E 135°22'0 0.0
2017-Jan-16 15:31N 34°34' E 135°22'0 0.0
2017-Jan-16 14:31N 34°34' E 135°22'0 0.0
2017-Jan-16 12:31N 34°34' E 135°22'0 0.0
2017-Jan-16 11:25N 34°34' E 135°22'0 0.0
2017-Jan-16 10:31N 34°34' E 135°22'0 0.0
2017-Jan-16 09:13N 34°34' E 135°22'0 0.0
2017-Jan-16 08:31N 34°34' E 135°22'0 0.0
2017-Jan-16 07:31N 34°34' E 135°22'0 0.0
2017-Jan-16 06:25N 34°34' E 135°22'0 0.0
2017-Jan-16 05:25N 34°34' E 135°22'0 0.0
2017-Jan-16 04:31N 34°34' E 135°22'0 0.0
2017-Jan-16 03:31N 34°34' E 135°22'0 0.0
2017-Jan-16 02:31N 34°34' E 135°22'0 0.0
2017-Jan-16 01:25N 34°34' E 135°22'0 0.0
2017-Jan-16 00:19N 34°34' E 135°22'0 0.0
2017-Jan-15 23:31N 34°34' E 135°22'0 0.0
2017-Jan-15 22:31N 34°34' E 135°22'0 0.0
2017-Jan-15 21:31N 34°34' E 135°22'0 0.0
2017-Jan-15 20:31N 34°34' E 135°22'0 0.0
2017-Jan-15 19:31N 34°34' E 135°22'0 0.0
2017-Jan-15 18:31N 34°34' E 135°22'0 0.0
2017-Jan-15 17:31N 34°34' E 135°22'0 0.0
2017-Jan-15 16:31N 34°34' E 135°22'0 0.0
2017-Jan-15 15:31N 34°34' E 135°22'0 0.0
2017-Jan-15 14:19N 34°34' E 135°22'0 0.0
2017-Jan-15 13:31N 34°34' E 135°22'0 0.0
2017-Jan-15 12:19N 34°34' E 135°22'0 0.0
2017-Jan-15 11:31N 34°34' E 135°22'0 0.0
2017-Jan-15 10:31N 34°34' E 135°22'0 0.0
2017-Jan-15 09:31N 34°34' E 135°22'0 0.0
2017-Jan-15 08:31N 34°34' E 135°22'0 0.0
2017-Jan-15 07:25N 34°34' E 135°22'0 0.0
2017-Jan-15 06:25N 34°34' E 135°22'0 0.0
2017-Jan-15 05:31N 34°34' E 135°22'0 0.0
2017-Jan-15 04:31N 34°34' E 135°22'0 0.0
2017-Jan-15 03:31N 34°34' E 135°22'0 0.0
2017-Jan-15 02:31N 34°34' E 135°22'0 0.0
2017-Jan-15 01:25N 34°34' E 135°22'0 0.0
2017-Jan-15 00:31N 34°34' E 135°22'0 0.0
2017-Jan-14 23:31N 34°34' E 135°22'0 0.0
2017-Jan-14 22:31N 34°34' E 135°22'0 0.0
2017-Jan-14 21:25N 34°34' E 135°22'0 0.0
2017-Jan-14 20:07N 34°34' E 135°22'0 0.0
2017-Jan-14 19:31N 34°34' E 135°22'0 0.0
2017-Jan-14 18:31N 34°34' E 135°22'0 0.0
2017-Jan-14 17:13N 34°34' E 135°22'0 0.0
2017-Jan-14 16:13N 34°34' E 135°22'0 0.1
2017-Jan-14 15:31N 34°34' E 135°22'0 0.0
2017-Jan-14 14:31N 34°34' E 135°22'0 0.0
2017-Jan-14 13:31N 34°34' E 135°22'0 0.0
2017-Jan-14 12:31N 34°34' E 135°22'0 0.0
2017-Jan-14 11:31N 34°34' E 135°22'0 0.0
2017-Jan-14 10:31N 34°34' E 135°22'0 0.0
2017-Jan-14 09:31N 34°34' E 135°22'0 0.0
2017-Jan-14 08:31N 34°34' E 135°22'5 5.4
2017-Jan-14 07:32N 34°34' E 135°16'1212.4
2017-Jan-14 06:33N 34°37' E 135°01'  
Track history (hours):
 
Tides and Currents Weather Stations Pressure Air Temp Water Temp Dewpoint Dewpoint Depression Visibility Wind Speed Wind Dir Waves Ship Positions

Megah Delapan

Last reported at 2017-Jan-21 06:20 UTC. Time now 2017-Jan-22 01:48 UTC.
Position N 35°03' E 139°38'.

Length 120 m; draft 7.1 m.

Type: Cargo ship. MMSI: 477639100.

Date/timePositionNaut miles runAvg speedWind from/ knotsBaromVisibWave heightAir tempDewpointWater temp
2017-Jan-21 06:20N 35°03' E 139°38'1113.5
2017-Jan-21 05:33N 35°11' E 139°46'1212.4
2017-Jan-21 04:33N 35°23' E 139°42'4 3.4
2017-Jan-21 03:31N 35°27' E 139°40'0 0.0
2017-Jan-21 02:31N 35°27' E 139°40'0 0.0
2017-Jan-21 01:31N 35°27' E 139°40'0 0.0
2017-Jan-21 00:31N 35°27' E 139°40'0 0.0
2017-Jan-20 23:31N 35°27' E 139°40'0 0.0
2017-Jan-20 22:31N 35°27' E 139°40'2 2.0
2017-Jan-20 21:33N 35°26' E 139°43'5 4.7
2017-Jan-20 20:33N 35°21' E 139°43'7 6.5
2017-Jan-20 19:33N 35°15' E 139°47'8 8.0
2017-Jan-20 18:33N 35°07' E 139°47'  
2017-Jan-18 10:17N 34°12' E 134°58'1114.3
2017-Jan-18 09:32N 34°22' E 135°02'1312.9
2017-Jan-18 08:33N 34°29' E 135°14'7 7.1
2017-Jan-18 07:31N 34°31' E 135°23'0 0.0
2017-Jan-18 06:31N 34°31' E 135°23'0 0.0
2017-Jan-18 05:31N 34°31' E 135°23'0 0.0
2017-Jan-18 04:31N 34°31' E 135°23'0 0.0
2017-Jan-18 03:31N 34°31' E 135°23'0 0.0
2017-Jan-18 02:31N 34°31' E 135°23'0 0.0
2017-Jan-18 01:31N 34°31' E 135°23'0 0.0
2017-Jan-18 00:31N 34°31' E 135°23'0 0.0
2017-Jan-17 23:31N 34°31' E 135°23'0 0.0
2017-Jan-17 22:31N 34°31' E 135°23'0 0.0
2017-Jan-17 21:31N 34°31' E 135°23'0 0.0
2017-Jan-17 20:31N 34°31' E 135°23'0 0.0
2017-Jan-17 19:31N 34°31' E 135°23'0 0.0
2017-Jan-17 18:25N 34°31' E 135°23'0 0.0
2017-Jan-17 17:31N 34°31' E 135°23'0 0.0
2017-Jan-17 16:25N 34°31' E 135°23'0 0.0
2017-Jan-17 15:25N 34°31' E 135°23'0 0.0
2017-Jan-17 14:31N 34°31' E 135°23'0 0.0
2017-Jan-17 13:31N 34°31' E 135°23'0 0.0
2017-Jan-17 12:31N 34°31' E 135°23'0 0.0
2017-Jan-17 11:25N 34°31' E 135°23'0 0.0
2017-Jan-17 10:31N 34°31' E 135°23'0 0.0
2017-Jan-17 09:31N 34°31' E 135°23'0 0.0
2017-Jan-17 08:25N 34°31' E 135°23'0 0.0
2017-Jan-17 07:31N 34°31' E 135°23'0 0.0
2017-Jan-17 06:25N 34°31' E 135°23'0 0.0
2017-Jan-17 05:25N 34°31' E 135°23'0 0.0
2017-Jan-17 04:31N 34°31' E 135°23'0 0.0
2017-Jan-17 03:25N 34°31' E 135°23'0 0.0
2017-Jan-17 02:19N 34°31' E 135°23'0 0.0
2017-Jan-17 01:31N 34°31' E 135°23'0 0.1
2017-Jan-17 00:33N 34°31' E 135°23'3 2.6
2017-Jan-16 23:33N 34°33' E 135°22'1 0.6
2017-Jan-16 22:13N 34°34' E 135°22'0 0.0
2017-Jan-16 21:31N 34°34' E 135°22'0 0.0
2017-Jan-16 20:31N 34°34' E 135°22'0 0.0
2017-Jan-16 19:31N 34°34' E 135°22'0 0.0
2017-Jan-16 18:31N 34°34' E 135°22'0 0.0
2017-Jan-16 17:31N 34°34' E 135°22'0 0.0
2017-Jan-16 16:31N 34°34' E 135°22'0 0.0
2017-Jan-16 15:31N 34°34' E 135°22'0 0.0
2017-Jan-16 14:31N 34°34' E 135°22'0 0.0
2017-Jan-16 12:31N 34°34' E 135°22'0 0.0
2017-Jan-16 11:25N 34°34' E 135°22'0 0.0
2017-Jan-16 10:31N 34°34' E 135°22'0 0.0
2017-Jan-16 09:13N 34°34' E 135°22'0 0.0
2017-Jan-16 08:31N 34°34' E 135°22'0 0.0
2017-Jan-16 07:31N 34°34' E 135°22'0 0.0
2017-Jan-16 06:25N 34°34' E 135°22'0 0.0
2017-Jan-16 05:25N 34°34' E 135°22'0 0.0
2017-Jan-16 04:31N 34°34' E 135°22'0 0.0
2017-Jan-16 03:31N 34°34' E 135°22'0 0.0
2017-Jan-16 02:31N 34°34' E 135°22'0 0.0
2017-Jan-16 01:25N 34°34' E 135°22'0 0.0
2017-Jan-16 00:19N 34°34' E 135°22'0 0.0
2017-Jan-15 23:31N 34°34' E 135°22'0 0.0
2017-Jan-15 22:31N 34°34' E 135°22'0 0.0
2017-Jan-15 21:31N 34°34' E 135°22'0 0.0
2017-Jan-15 20:31N 34°34' E 135°22'0 0.0
2017-Jan-15 19:31N 34°34' E 135°22'0 0.0
2017-Jan-15 18:31N 34°34' E 135°22'0 0.0
2017-Jan-15 17:31N 34°34' E 135°22'0 0.0
2017-Jan-15 16:31N 34°34' E 135°22'0 0.0
2017-Jan-15 15:31N 34°34' E 135°22'0 0.0
2017-Jan-15 14:19N 34°34' E 135°22'0 0.0
2017-Jan-15 13:31N 34°34' E 135°22'0 0.0
2017-Jan-15 12:19N 34°34' E 135°22'0 0.0
2017-Jan-15 11:31N 34°34' E 135°22'0 0.0
2017-Jan-15 10:31N 34°34' E 135°22'0 0.0
2017-Jan-15 09:31N 34°34' E 135°22'0 0.0
2017-Jan-15 08:31N 34°34' E 135°22'0 0.0
2017-Jan-15 07:25N 34°34' E 135°22'0 0.0
2017-Jan-15 06:25N 34°34' E 135°22'0 0.0
2017-Jan-15 05:31N 34°34' E 135°22'0 0.0
2017-Jan-15 04:31N 34°34' E 135°22'0 0.0
2017-Jan-15 03:31N 34°34' E 135°22'0 0.0
2017-Jan-15 02:31N 34°34' E 135°22'0 0.0
2017-Jan-15 01:25N 34°34' E 135°22'0 0.0
2017-Jan-15 00:31N 34°34' E 135°22'0 0.0
2017-Jan-14 23:31N 34°34' E 135°22'0 0.0
2017-Jan-14 22:31N 34°34' E 135°22'0 0.0
2017-Jan-14 21:25N 34°34' E 135°22'0 0.0
2017-Jan-14 20:07N 34°34' E 135°22'0 0.0
2017-Jan-14 19:31N 34°34' E 135°22'0 0.0
2017-Jan-14 18:31N 34°34' E 135°22'0 0.0
2017-Jan-14 17:13N 34°34' E 135°22'0 0.0
2017-Jan-14 16:13N 34°34' E 135°22'0 0.1
2017-Jan-14 15:31N 34°34' E 135°22'0 0.0
2017-Jan-14 14:31N 34°34' E 135°22'0 0.0
2017-Jan-14 13:31N 34°34' E 135°22'0 0.0
2017-Jan-14 12:31N 34°34' E 135°22'0 0.0
2017-Jan-14 11:31N 34°34' E 135°22'0 0.0
2017-Jan-14 10:31N 34°34' E 135°22'0 0.0
2017-Jan-14 09:31N 34°34' E 135°22'0 0.0
2017-Jan-14 08:31N 34°34' E 135°22'5 5.4
2017-Jan-14 07:32N 34°34' E 135°16'1212.4
2017-Jan-14 06:33N 34°37' E 135°01'  

Dump ship's entire track history